This is the latest recevied weather packets stored in our database for station/object LRBM. If no packets are shown the sender has not sent any weather packets the latest 10 day(s).
| Time | Temp. | Humidity | Pressure | Rain* | Wind** | Luminosity | Snow |
|---|---|---|---|---|---|---|---|
| 1777616317 | 7.78° C | 46% | 1027 hPa | - | - | - | - |
| 1777615415 | 7.78° C | 46% | 1027 hPa | - | - | - | - |
| 1777614515 | 6.11° C | 49% | 1027 hPa | - | - | - | - |
| 1777613616 | 6.11° C | 49% | 1027 hPa | - | - | - | - |
| 1777612716 | 5° C | 53% | 1026 hPa | - | - | - | - |
| 1777611815 | 5° C | 53% | 1026 hPa | - | - | - | - |
| 1777610915 | 3.89° C | 56% | 1026 hPa | - | - | - | - |
| 1777610015 | 3.89° C | 56% | 1026 hPa | - | - | - | - |
| 1777609115 | 2.22° C | 65% | 1026 hPa | - | - | - | - |
| 1777608215 | 2.22° C | 65% | 1026 hPa | - | - | - | - |
| 1777607315 | 2.22° C | 60% | 1026 hPa | - | - | - | - |
| 1777606415 | 2.22° C | 60% | 1026 hPa | - | - | - | - |
| 1777605515 | 2.22° C | 60% | 1026 hPa | - | - | - | - |
| 1777604616 | 2.22° C | 60% | 1026 hPa | - | - | - | - |
| 1777603716 | 2.78° C | 56% | 1026 hPa | - | - | - | - |
| 1777602815 | 2.78° C | 56% | 1026 hPa | - | - | - | - |
| 1777601915 | 2.22° C | 60% | 1026 hPa | - | - | - | - |
| 1777584816 | 7.22° C | 39% | 1026 hPa | - | - | - | - |
| 1777583916 | 7.78° C | 37% | 1025 hPa | - | - | - | - |
| 1777579416 | 7.78° C | 40% | 1025 hPa | - | - | - | - |
| 1777577636 | 7.22° C | 46% | 1024 hPa | - | - | - | - |
| 1777574913 | 8.89° C | 43% | 1024 hPa | - | - | - | - |
| 1777565916 | 13.89° C | 21% | 1023 hPa | - | - | - | - |
| 1777564116 | 12.78° C | 26% | 1023 hPa | - | - | - | - |
| 1777563216 | 12.78° C | 26% | 1023 hPa | - | - | - | - |
* Rain since midnight (hover to see other rain measurements)
** Current wind speed in m/s (hover to see current wind gust speed)